sensor_id;sensor_type;location;lat;lon;timestamp;pressure;altitude;pressure_sealevel;temperature;humidity
14790;BME280;7486;51.010;10.366;2022-11-15T00:00:40;98035.91;;;6.81;77.16
14790;BME280;7486;51.010;10.366;2022-11-15T00:03:26;98029.44;;;7.04;76.07
14790;BME280;7486;51.010;10.366;2022-11-15T00:06:12;98016.97;;;7.13;74.97
14790;BME280;7486;51.010;10.366;2022-11-15T00:08:58;98025.44;;;7.08;74.52
14790;BME280;7486;51.010;10.366;2022-11-15T00:11:44;98022.41;;;6.90;74.99
14790;BME280;7486;51.010;10.366;2022-11-15T00:14:29;98019.09;;;7.03;74.75
14790;BME280;7486;51.010;10.366;2022-11-15T00:17:15;98021.53;;;7.04;74.33
14790;BME280;7486;51.010;10.366;2022-11-15T00:20:00;98010.75;;;6.99;74.62
14790;BME280;7486;51.010;10.366;2022-11-15T00:22:45;98007.69;;;6.96;74.61
14790;BME280;7486;51.010;10.366;2022-11-15T00:25:31;98015.00;;;6.79;76.06
14790;BME280;7486;51.010;10.366;2022-11-15T00:28:17;98012.66;;;6.84;76.16
14790;BME280;7486;51.010;10.366;2022-11-15T00:31:04;98013.19;;;6.80;76.14
14790;BME280;7486;51.010;10.366;2022-11-15T00:33:50;98007.50;;;6.61;77.29
14790;BME280;7486;51.010;10.366;2022-11-15T00:36:35;97999.22;;;6.64;77.18
14790;BME280;7486;51.010;10.366;2022-11-15T00:39:21;97999.22;;;6.64;77.07
14790;BME280;7486;51.010;10.366;2022-11-15T00:42:06;97994.75;;;6.80;76.81
14790;BME280;7486;51.010;10.366;2022-11-15T00:44:52;97998.22;;;6.65;76.92
14790;BME280;7486;51.010;10.366;2022-11-15T00:47:37;97988.19;;;6.54;77.74
14790;BME280;7486;51.010;10.366;2022-11-15T00:50:22;97994.19;;;6.48;78.03
14790;BME280;7486;51.010;10.366;2022-11-15T00:53:08;97997.09;;;6.53;78.29
14790;BME280;7486;51.010;10.366;2022-11-15T00:55:53;97971.81;;;6.38;78.31
14790;BME280;7486;51.010;10.366;2022-11-15T00:58:38;97989.72;;;6.63;78.38
14790;BME280;7486;51.010;10.366;2022-11-15T01:01:24;97984.13;;;6.88;77.37
14790;BME280;7486;51.010;10.366;2022-11-15T01:04:09;97979.25;;;6.85;77.68
14790;BME280;7486;51.010;10.366;2022-11-15T01:06:55;97987.06;;;6.99;77.17
14790;BME280;7486;51.010;10.366;2022-11-15T01:09:40;97985.88;;;7.02;76.65
14790;BME280;7486;51.010;10.366;2022-11-15T01:12:26;97990.31;;;7.01;76.93
14790;BME280;7486;51.010;10.366;2022-11-15T01:15:12;97985.88;;;7.02;76.66
14790;BME280;7486;51.010;10.366;2022-11-15T01:17:57;97982.88;;;7.05;76.94
14790;BME280;7486;51.010;10.366;2022-11-15T01:20:43;97978.97;;;7.22;76.10
14790;BME280;7486;51.010;10.366;2022-11-15T01:23:28;97987.72;;;7.29;75.89
14790;BME280;7486;51.010;10.366;2022-11-15T01:26:14;97951.94;;;7.13;75.42
14790;BME280;7486;51.010;10.366;2022-11-15T01:29:00;97976.94;;;7.52;74.67
14790;BME280;7486;51.010;10.366;2022-11-15T01:31:45;97978.00;;;7.57;74.21
14790;BME280;7486;51.010;10.366;2022-11-15T01:34:30;97984.28;;;7.56;74.31
14790;BME280;7486;51.010;10.366;2022-11-15T01:37:16;97990.22;;;7.65;74.07
14790;BME280;7486;51.010;10.366;2022-11-15T01:40:01;97980.25;;;7.60;73.91
14790;BME280;7486;51.010;10.366;2022-11-15T01:42:47;97985.25;;;7.49;74.40
14790;BME280;7486;51.010;10.366;2022-11-15T01:45:32;97979.03;;;7.56;74.14
14790;BME280;7486;51.010;10.366;2022-11-15T01:48:18;97974.78;;;7.62;73.36
14790;BME280;7486;51.010;10.366;2022-11-15T01:51:07;97980.34;;;7.74;73.06
14790;BME280;7486;51.010;10.366;2022-11-15T01:53:57;97974.59;;;7.63;73.08
14790;BME280;7486;51.010;10.366;2022-11-15T01:57:12;97970.84;;;7.79;72.26
14790;BME280;7486;51.010;10.366;2022-11-15T01:59:57;97949.50;;;7.74;71.52
14790;BME280;7486;51.010;10.366;2022-11-15T02:02:45;97956.44;;;7.82;71.80
14790;BME280;7486;51.010;10.366;2022-11-15T02:05:31;97950.16;;;7.83;70.89
14790;BME280;7486;51.010;10.366;2022-11-15T02:08:17;97946.28;;;7.79;71.07
14790;BME280;7486;51.010;10.366;2022-11-15T02:11:07;97953.66;;;7.90;70.76
14790;BME280;7486;51.010;10.366;2022-11-15T02:13:53;97957.28;;;7.89;70.03
14790;BME280;7486;51.010;10.366;2022-11-15T02:16:51;97938.19;;;7.46;71.90
14790;BME280;7486;51.010;10.366;2022-11-15T02:29:03;97944.66;;;7.15;73.57
14790;BME280;7486;51.010;10.366;2022-11-15T02:32:02;97934.44;;;7.06;73.50
14790;BME280;7486;51.010;10.366;2022-11-15T02:35:43;97929.94;;;7.00;73.99
14790;BME280;7486;51.010;10.366;2022-11-15T02:38:24;97931.28;;;7.17;73.09
14790;BME280;7486;51.010;10.366;2022-11-15T02:41:18;97926.50;;;7.27;72.39
14790;BME280;7486;51.010;10.366;2022-11-15T02:44:32;97922.53;;;7.38;71.40
14790;BME280;7486;51.010;10.366;2022-11-15T02:47:21;97920.94;;;7.43;70.77
14790;BME280;7486;51.010;10.366;2022-11-15T02:50:11;97917.22;;;7.31;70.91
14790;BME280;7486;51.010;10.366;2022-11-15T02:52:57;97919.28;;;7.36;70.39
14790;BME280;7486;51.010;10.366;2022-11-15T02:55:49;97904.56;;;7.20;70.41
14790;BME280;7486;51.010;10.366;2022-11-15T02:59:37;97912.72;;;7.25;70.55
14790;BME280;7486;51.010;10.366;2022-11-15T03:11:03;97921.75;;;6.88;72.83
14790;BME280;7486;51.010;10.366;2022-11-15T03:17:19;97911.97;;;6.82;71.19
14790;BME280;7486;51.010;10.366;2022-11-15T03:20:08;97917.16;;;6.76;70.66
14790;BME280;7486;51.010;10.366;2022-11-15T03:22:58;97917.63;;;6.64;71.60
14790;BME280;7486;51.010;10.366;2022-11-15T03:25:48;97910.13;;;6.61;71.52
14790;BME280;7486;51.010;10.366;2022-11-15T03:28:43;97896.28;;;6.53;71.12
14790;BME280;7486;51.010;10.366;2022-11-15T03:31:36;97900.34;;;6.55;70.91
14790;BME280;7486;51.010;10.366;2022-11-15T03:34:34;97898.81;;;6.40;71.49
14790;BME280;7486;51.010;10.366;2022-11-15T03:37:34;97892.44;;;6.34;71.45
14790;BME280;7486;51.010;10.366;2022-11-15T03:40:25;97898.72;;;6.33;71.47
14790;BME280;7486;51.010;10.366;2022-11-15T03:46:16;97903.94;;;6.27;71.50
14790;BME280;7486;51.010;10.366;2022-11-15T03:49:20;97915.38;;;6.19;70.73
14790;BME280;7486;51.010;10.366;2022-11-15T03:52:10;97927.13;;;5.73;72.17
14790;BME280;7486;51.010;10.366;2022-11-15T03:54:56;97916.88;;;5.48;72.67
14790;BME280;7486;51.010;10.366;2022-11-15T03:57:42;97927.94;;;5.29;73.64
14790;BME280;7486;51.010;10.366;2022-11-15T04:00:28;97917.31;;;5.23;74.30
14790;BME280;7486;51.010;10.366;2022-11-15T04:03:13;97880.31;;;4.95;74.07
14790;BME280;7486;51.010;10.366;2022-11-15T04:05:59;97917.31;;;5.23;74.42
14790;BME280;7486;51.010;10.366;2022-11-15T04:08:44;97910.53;;;5.28;74.18
14790;BME280;7486;51.010;10.366;2022-11-15T04:11:30;97914.78;;;5.29;73.52
14790;BME280;7486;51.010;10.366;2022-11-15T04:14:16;97916.06;;;5.33;73.92
14790;BME280;7486;51.010;10.366;2022-11-15T04:17:01;97916.53;;;5.37;73.56
14790;BME280;7486;51.010;10.366;2022-11-15T04:19:47;97925.22;;;5.37;73.91
14790;BME280;7486;51.010;10.366;2022-11-15T04:22:32;97925.22;;;5.37;73.68
14790;BME280;7486;51.010;10.366;2022-11-15T04:25:17;97924.31;;;5.30;73.13
14790;BME280;7486;51.010;10.366;2022-11-15T04:28:08;97921.50;;;5.32;72.74
14790;BME280;7486;51.010;10.366;2022-11-15T04:30:53;97927.94;;;5.29;73.35
14790;BME280;7486;51.010;10.366;2022-11-15T04:33:38;97916.16;;;5.25;73.10
14790;BME280;7486;51.010;10.366;2022-11-15T04:36:24;97909.97;;;5.18;73.45
14790;BME280;7486;51.010;10.366;2022-11-15T04:39:09;97908.03;;;5.12;72.95
14790;BME280;7486;51.010;10.366;2022-11-15T04:41:54;97897.50;;;4.83;72.94
14790;BME280;7486;51.010;10.366;2022-11-15T04:44:39;97904.34;;;4.84;73.09
14790;BME280;7486;51.010;10.366;2022-11-15T04:47:25;97901.28;;;4.80;73.44
14790;BME280;7486;51.010;10.366;2022-11-15T04:50:10;97868.75;;;4.66;74.34
14790;BME280;7486;51.010;10.366;2022-11-15T04:52:56;97893.25;;;4.82;75.26
14790;BME280;7486;51.010;10.366;2022-11-15T04:55:44;97879.34;;;4.96;75.43
14790;BME280;7486;51.010;10.366;2022-11-15T04:58:30;97881.41;;;4.86;76.43
14790;BME280;7486;51.010;10.366;2022-11-15T05:01:15;97886.66;;;4.86;77.89
14790;BME280;7486;51.010;10.366;2022-11-15T05:04:00;97885.28;;;4.90;78.07
14790;BME280;7486;51.010;10.366;2022-11-15T05:06:50;97887.84;;;4.98;77.73
14790;BME280;7486;51.010;10.366;2022-11-15T05:09:35;97880.16;;;5.11;76.61
14790;BME280;7486;51.010;10.366;2022-11-15T05:12:21;97882.91;;;5.17;76.37
14790;BME280;7486;51.010;10.366;2022-11-15T05:15:07;97887.09;;;5.27;75.84
14790;BME280;7486;51.010;10.366;2022-11-15T05:17:57;97883.28;;;5.29;74.94
14790;BME280;7486;51.010;10.366;2022-11-15T05:20:43;97884.94;;;5.30;74.22
14790;BME280;7486;51.010;10.366;2022-11-15T05:23:28;97878.66;;;5.31;74.14
14790;BME280;7486;51.010;10.366;2022-11-15T05:26:15;97881.13;;;5.33;74.42
14790;BME280;7486;51.010;10.366;2022-11-15T05:29:02;97878.19;;;5.28;73.58
14790;BME280;7486;51.010;10.366;2022-11-15T05:31:47;97879.75;;;5.22;73.44
14790;BME280;7486;51.010;10.366;2022-11-15T05:34:32;97872.41;;;5.17;73.26
14790;BME280;7486;51.010;10.366;2022-11-15T05:37:18;97872.63;;;5.08;73.38
14790;BME280;7486;51.010;10.366;2022-11-15T05:40:04;97869.19;;;5.07;73.88
14790;BME280;7486;51.010;10.366;2022-11-15T05:42:49;97870.53;;;5.03;73.80
14790;BME280;7486;51.010;10.366;2022-11-15T05:45:36;97870.44;;;4.97;73.28
14790;BME280;7486;51.010;10.366;2022-11-15T05:48:21;97879.69;;;4.93;73.03
14790;BME280;7486;51.010;10.366;2022-11-15T05:51:07;97871.88;;;4.85;73.05
14790;BME280;7486;51.010;10.366;2022-11-15T05:53:53;97872.25;;;4.82;73.11
14790;BME280;7486;51.010;10.366;2022-11-15T05:56:40;97876.50;;;4.83;73.94
14790;BME280;7486;51.010;10.366;2022-11-15T05:59:29;97879.66;;;4.78;73.75
14790;BME280;7486;51.010;10.366;2022-11-15T06:02:15;97886.09;;;4.76;73.93
14790;BME280;7486;51.010;10.366;2022-11-15T06:05:00;97880.53;;;4.71;73.79
14790;BME280;7486;51.010;10.366;2022-11-15T06:07:46;97873.38;;;4.64;73.65
14790;BME280;7486;51.010;10.366;2022-11-15T06:10:32;97873.44;;;4.56;74.08
14790;BME280;7486;51.010;10.366;2022-11-15T06:13:18;97872.09;;;4.60;74.71
14790;BME280;7486;51.010;10.366;2022-11-15T06:16:03;97878.69;;;4.56;74.76
14790;BME280;7486;51.010;10.366;2022-11-15T06:18:49;97874.88;;;4.59;75.52
14790;BME280;7486;51.010;10.366;2022-11-15T06:21:34;97879.59;;;4.63;75.47
14790;BME280;7486;51.010;10.366;2022-11-15T06:24:20;97880.06;;;4.67;75.87
14790;BME280;7486;51.010;10.366;2022-11-15T06:27:05;97879.72;;;4.70;76.19
14790;BME280;7486;51.010;10.366;2022-11-15T06:29:51;97901.97;;;4.74;77.09
14790;BME280;7486;51.010;10.366;2022-11-15T06:32:36;97892.56;;;4.80;77.58
14790;BME280;7486;51.010;10.366;2022-11-15T06:35:22;97896.59;;;4.90;78.83
14790;BME280;7486;51.010;10.366;2022-11-15T06:38:09;97896.00;;;5.03;78.95
14790;BME280;7486;51.010;10.366;2022-11-15T06:41:01;97906.72;;;5.16;78.84
14790;BME280;7486;51.010;10.366;2022-11-15T06:43:47;97894.69;;;5.22;79.10
14790;BME280;7486;51.010;10.366;2022-11-15T06:46:32;97902.84;;;5.27;78.48
14790;BME280;7486;51.010;10.366;2022-11-15T06:49:18;97902.94;;;5.33;78.63
14790;BME280;7486;51.010;10.366;2022-11-15T06:52:06;97886.81;;;5.36;78.68
14790;BME280;7486;51.010;10.366;2022-11-15T06:54:52;97907.03;;;5.50;78.44
14790;BME280;7486;51.010;10.366;2022-11-15T06:57:46;97909.09;;;5.55;78.68
14790;BME280;7486;51.010;10.366;2022-11-15T07:00:32;97911.00;;;5.61;78.64
14790;BME280;7486;51.010;10.366;2022-11-15T07:03:17;97905.03;;;5.67;78.71
14790;BME280;7486;51.010;10.366;2022-11-15T07:06:03;97898.41;;;5.71;78.77
14790;BME280;7486;51.010;10.366;2022-11-15T07:08:52;97888.06;;;5.69;78.79
14790;BME280;7486;51.010;10.366;2022-11-15T07:11:37;97903.56;;;5.79;79.34
14790;BME280;7486;51.010;10.366;2022-11-15T07:14:23;97898.59;;;5.69;79.74
14790;BME280;7486;51.010;10.366;2022-11-15T07:17:08;97858.63;;;5.45;79.83
14790;BME280;7486;51.010;10.366;2022-11-15T07:19:54;97898.22;;;5.73;79.75
14790;BME280;7486;51.010;10.366;2022-11-15T07:22:40;97904.00;;;5.83;79.21
14790;BME280;7486;51.010;10.366;2022-11-15T07:25:25;97897.22;;;5.74;79.35
14790;BME280;7486;51.010;10.366;2022-11-15T07:28:10;97895.22;;;5.76;79.41
14790;BME280;7486;51.010;10.366;2022-11-15T07:30:56;97897.59;;;5.85;79.08
14790;BME280;7486;51.010;10.366;2022-11-15T07:33:41;97898.94;;;5.96;78.83
14790;BME280;7486;51.010;10.366;2022-11-15T07:36:27;97892.94;;;6.02;78.07
14790;BME280;7486;51.010;10.366;2022-11-15T07:39:12;97894.00;;;6.07;78.19
14790;BME280;7486;51.010;10.366;2022-11-15T07:41:59;97862.91;;;5.96;77.71
14790;BME280;7486;51.010;10.366;2022-11-15T07:44:44;97883.59;;;6.20;77.84
14790;BME280;7486;51.010;10.366;2022-11-15T07:47:30;97891.63;;;6.34;77.36
14790;BME280;7486;51.010;10.366;2022-11-15T07:50:16;97899.84;;;6.45;76.88
14790;BME280;7486;51.010;10.366;2022-11-15T07:53:02;97895.66;;;6.51;76.70
14790;BME280;7486;51.010;10.366;2022-11-15T07:55:47;97892.28;;;6.57;76.70
14790;BME280;7486;51.010;10.366;2022-11-15T07:58:33;97882.59;;;6.57;76.69
14790;BME280;7486;51.010;10.366;2022-11-15T08:01:18;97897.03;;;6.68;76.65
14790;BME280;7486;51.010;10.366;2022-11-15T08:04:04;97890.25;;;6.74;76.40
14790;BME280;7486;51.010;10.366;2022-11-15T08:06:49;97891.50;;;6.78;76.47
14790;BME280;7486;51.010;10.366;2022-11-15T08:09:34;97880.38;;;6.82;76.26
14790;BME280;7486;51.010;10.366;2022-11-15T08:12:20;97886.06;;;6.86;76.35
14790;BME280;7486;51.010;10.366;2022-11-15T08:15:05;97890.56;;;6.92;76.38
14790;BME280;7486;51.010;10.366;2022-11-15T08:17:58;97888.59;;;6.94;76.28
14790;BME280;7486;51.010;10.366;2022-11-15T08:20:44;97887.94;;;6.92;76.11
14790;BME280;7486;51.010;10.366;2022-11-15T08:23:30;97885.75;;;6.95;76.13
14790;BME280;7486;51.010;10.366;2022-11-15T08:26:16;97883.19;;;7.02;76.13
14790;BME280;7486;51.010;10.366;2022-11-15T08:29:02;97883.41;;;7.07;75.96
14790;BME280;7486;51.010;10.366;2022-11-15T08:31:47;97884.03;;;7.09;75.41
14790;BME280;7486;51.010;10.366;2022-11-15T08:34:33;97872.50;;;7.10;75.47
14790;BME280;7486;51.010;10.366;2022-11-15T08:37:18;97882.03;;;7.11;75.51
14790;BME280;7486;51.010;10.366;2022-11-15T08:40:04;97876.63;;;7.19;75.29
14790;BME280;7486;51.010;10.366;2022-11-15T08:42:50;97873.44;;;7.30;75.20
14790;BME280;7486;51.010;10.366;2022-11-15T08:45:35;97868.41;;;7.35;74.78
14790;BME280;7486;51.010;10.366;2022-11-15T08:48:21;97869.00;;;7.37;74.73
14790;BME280;7486;51.010;10.366;2022-11-15T08:51:06;97862.59;;;7.46;74.64
14790;BME280;7486;51.010;10.366;2022-11-15T08:53:52;97862.63;;;7.53;74.19
14790;BME280;7486;51.010;10.366;2022-11-15T08:56:37;97861.84;;;7.59;73.81
14790;BME280;7486;51.010;10.366;2022-11-15T08:59:23;97852.53;;;7.63;73.72
14790;BME280;7486;51.010;10.366;2022-11-15T09:02:12;97826.06;;;7.43;74.17
14790;BME280;7486;51.010;10.366;2022-11-15T09:04:58;97853.13;;;7.58;74.30
14790;BME280;7486;51.010;10.366;2022-11-15T09:07:43;97851.50;;;7.64;74.26
14790;BME280;7486;51.010;10.366;2022-11-15T09:10:28;97855.34;;;7.61;73.54
14790;BME280;7486;51.010;10.366;2022-11-15T09:13:14;97850.91;;;7.62;73.93
14790;BME280;7486;51.010;10.366;2022-11-15T09:16:01;97844.00;;;7.61;73.59
14790;BME280;7486;51.010;10.366;2022-11-15T09:18:46;97846.22;;;7.57;72.69
14790;BME280;7486;51.010;10.366;2022-11-15T09:21:32;97842.38;;;7.53;73.27
14790;BME280;7486;51.010;10.366;2022-11-15T09:24:18;97845.81;;;7.60;73.75
14790;BME280;7486;51.010;10.366;2022-11-15T09:27:04;97847.25;;;7.56;74.08
14790;BME280;7486;51.010;10.366;2022-11-15T09:30:06;97841.34;;;7.54;75.05
14790;BME280;7486;51.010;10.366;2022-11-15T09:32:52;97800.50;;;7.37;72.94
14790;BME280;7486;51.010;10.366;2022-11-15T09:35:37;97831.81;;;7.53;73.29
14790;BME280;7486;51.010;10.366;2022-11-15T09:38:23;97805.88;;;7.57;73.85
14790;BME280;7486;51.010;10.366;2022-11-15T09:45:10;97842.91;;;7.90;73.76
14790;BME280;7486;51.010;10.366;2022-11-15T09:51:00;97835.72;;;8.25;71.46
14790;BME280;7486;51.010;10.366;2022-11-15T09:54:32;97831.28;;;8.45;70.59
14790;BME280;7486;51.010;10.366;2022-11-15T09:56:56;97821.56;;;8.58;69.73
14790;BME280;7486;51.010;10.366;2022-11-15T10:05:20;97818.91;;;8.71;69.07
14790;BME280;7486;51.010;10.366;2022-11-15T10:13:00;97811.50;;;9.26;68.01
14790;BME280;7486;51.010;10.366;2022-11-15T10:15:27;97764.59;;;9.08;65.31
14790;BME280;7486;51.010;10.366;2022-11-15T10:18:09;97797.06;;;9.48;65.18
14790;BME280;7486;51.010;10.366;2022-11-15T10:20:57;97797.78;;;9.68;65.97
14790;BME280;7486;51.010;10.366;2022-11-15T10:23:26;97795.03;;;9.88;65.96
14790;BME280;7486;51.010;10.366;2022-11-15T10:25:57;97783.50;;;10.07;65.65
14790;BME280;7486;51.010;10.366;2022-11-15T10:28:32;97793.56;;;10.30;65.43
14790;BME280;7486;51.010;10.366;2022-11-15T10:31:00;97784.84;;;10.23;63.25
14790;BME280;7486;51.010;10.366;2022-11-15T10:33:37;97775.94;;;10.42;62.88
14790;BME280;7486;51.010;10.366;2022-11-15T10:44:11;97765.06;;;11.00;63.18
14790;BME280;7486;51.010;10.366;2022-11-15T10:46:41;97760.94;;;11.04;62.46
14790;BME280;7486;51.010;10.366;2022-11-15T10:49:17;97756.28;;;10.81;62.31
14790;BME280;7486;51.010;10.366;2022-11-15T10:54:30;97750.19;;;11.17;62.39
14790;BME280;7486;51.010;10.366;2022-11-15T10:57:05;97745.09;;;11.34;62.49
14790;BME280;7486;51.010;10.366;2022-11-15T10:59:35;97718.25;;;10.94;61.69
14790;BME280;7486;51.010;10.366;2022-11-15T11:02:35;97749.63;;;11.33;61.34
14790;BME280;7486;51.010;10.366;2022-11-15T11:05:25;97741.44;;;11.35;59.94
14790;BME280;7486;51.010;10.366;2022-11-15T11:08:01;97736.97;;;10.99;59.69
14790;BME280;7486;51.010;10.366;2022-11-15T11:10:29;97728.34;;;10.85;60.50
14790;BME280;7486;51.010;10.366;2022-11-15T11:13:32;97732.03;;;10.59;60.12
14790;BME280;7486;51.010;10.366;2022-11-15T11:24:59;97721.38;;;10.66;62.11
14790;BME280;7486;51.010;10.366;2022-11-15T11:30:47;97707.81;;;10.99;60.86
14790;BME280;7486;51.010;10.366;2022-11-15T11:36:44;97704.59;;;11.63;59.79
14790;BME280;7486;51.010;10.366;2022-11-15T11:39:26;97702.75;;;11.63;59.17
14790;BME280;7486;51.010;10.366;2022-11-15T11:42:18;97704.69;;;11.56;58.86
14790;BME280;7486;51.010;10.366;2022-11-15T11:45:10;97692.72;;;11.65;58.03
14790;BME280;7486;51.010;10.366;2022-11-15T11:47:51;97685.63;;;11.78;59.80
14790;BME280;7486;51.010;10.366;2022-11-15T11:50:25;97684.81;;;11.77;60.31
14790;BME280;7486;51.010;10.366;2022-11-15T11:53:15;97684.81;;;11.29;59.73
14790;BME280;7486;51.010;10.366;2022-11-15T11:55:51;97676.25;;;11.27;59.57
14790;BME280;7486;51.010;10.366;2022-11-15T11:58:32;97682.19;;;11.11;60.22
14790;BME280;7486;51.010;10.366;2022-11-15T12:01:23;97676.97;;;11.04;61.51
14790;BME280;7486;51.010;10.366;2022-11-15T12:03:56;97678.63;;;11.17;60.86
14790;BME280;7486;51.010;10.366;2022-11-15T12:06:45;97666.19;;;11.17;60.14
14790;BME280;7486;51.010;10.366;2022-11-15T12:09:32;97676.97;;;11.34;60.23
14790;BME280;7486;51.010;10.366;2022-11-15T12:12:25;97672.03;;;11.38;59.92
14790;BME280;7486;51.010;10.366;2022-11-15T12:17:31;97669.25;;;11.81;58.46
14790;BME280;7486;51.010;10.366;2022-11-15T12:20:04;97665.53;;;11.82;60.23
14790;BME280;7486;51.010;10.366;2022-11-15T12:25:08;97670.06;;;11.93;57.97
14790;BME280;7486;51.010;10.366;2022-11-15T12:28:18;97672.47;;;11.83;59.24
14790;BME280;7486;51.010;10.366;2022-11-15T12:31:39;97668.34;;;11.98;57.97
14790;BME280;7486;51.010;10.366;2022-11-15T12:36:55;97662.81;;;12.23;58.27
14790;BME280;7486;51.010;10.366;2022-11-15T12:44:57;97655.94;;;12.80;55.64
14790;BME280;7486;51.010;10.366;2022-11-15T12:47:26;97642.31;;;12.65;55.65
14790;BME280;7486;51.010;10.366;2022-11-15T12:49:53;97658.44;;;12.05;56.74
14790;BME280;7486;51.010;10.366;2022-11-15T12:52:20;97658.19;;;12.07;57.32
14790;BME280;7486;51.010;10.366;2022-11-15T12:54:53;97649.09;;;11.61;57.92
14790;BME280;7486;51.010;10.366;2022-11-15T12:59:57;97635.91;;;11.25;57.00
14790;BME280;7486;51.010;10.366;2022-11-15T13:02:38;97640.84;;;11.21;58.53
14790;BME280;7486;51.010;10.366;2022-11-15T13:18:38;97611.22;;;11.43;58.33
14790;BME280;7486;51.010;10.366;2022-11-15T13:21:23;97610.84;;;11.39;57.98
14790;BME280;7486;51.010;10.366;2022-11-15T13:23:54;97614.50;;;11.68;58.44
14790;BME280;7486;51.010;10.366;2022-11-15T13:26:21;97612.84;;;11.44;56.69
14790;BME280;7486;51.010;10.366;2022-11-15T13:28:49;97582.44;;;11.28;58.96
14790;BME280;7486;51.010;10.366;2022-11-15T13:31:30;97608.19;;;11.57;57.76
14790;BME280;7486;51.010;10.366;2022-11-15T13:34:12;97612.22;;;11.42;58.01
14790;BME280;7486;51.010;10.366;2022-11-15T13:37:00;97609.88;;;11.04;58.35
14790;BME280;7486;51.010;10.366;2022-11-15T13:39:32;97608.06;;;11.04;59.31
14790;BME280;7486;51.010;10.366;2022-11-15T13:41:59;97599.44;;;11.09;58.38
14790;BME280;7486;51.010;10.366;2022-11-15T13:44:28;97595.34;;;10.77;58.26
14790;BME280;7486;51.010;10.366;2022-11-15T13:47:02;97590.78;;;10.84;60.05
14790;BME280;7486;51.010;10.366;2022-11-15T13:49:31;97565.81;;;10.61;58.55
14790;BME280;7486;51.010;10.366;2022-11-15T13:51:59;97582.34;;;10.57;59.01
14790;BME280;7486;51.010;10.366;2022-11-15T13:54:28;97585.94;;;10.81;59.20
14790;BME280;7486;51.010;10.366;2022-11-15T13:57:13;97569.50;;;10.90;59.05
14790;BME280;7486;51.010;10.366;2022-11-15T13:59:47;97570.66;;;11.24;60.19
14790;BME280;7486;51.010;10.366;2022-11-15T14:02:21;97575.41;;;11.22;59.40
14790;BME280;7486;51.010;10.366;2022-11-15T14:04:51;97571.47;;;11.13;60.46
14790;BME280;7486;51.010;10.366;2022-11-15T14:07:22;97576.22;;;11.22;58.85
14790;BME280;7486;51.010;10.366;2022-11-15T14:09:49;97561.03;;;11.41;60.51
14790;BME280;7486;51.010;10.366;2022-11-15T14:12:33;97567.50;;;11.45;59.26
14790;BME280;7486;51.010;10.366;2022-11-15T14:15:18;97570.31;;;11.50;60.10
14790;BME280;7486;51.010;10.366;2022-11-15T14:17:45;97567.97;;;11.42;59.57
14790;BME280;7486;51.010;10.366;2022-11-15T14:22:57;97568.81;;;11.13;60.11
14790;BME280;7486;51.010;10.366;2022-11-15T14:25:29;97565.38;;;11.24;60.04
14790;BME280;7486;51.010;10.366;2022-11-15T14:30:45;97558.41;;;11.53;60.23
14790;BME280;7486;51.010;10.366;2022-11-15T14:33:32;97555.69;;;11.59;60.55
14790;BME280;7486;51.010;10.366;2022-11-15T14:36:05;97559.50;;;11.63;60.79
14790;BME280;7486;51.010;10.366;2022-11-15T14:38:32;97551.31;;;11.65;60.55
14790;BME280;7486;51.010;10.366;2022-11-15T14:41:00;97557.31;;;11.60;60.08
14790;BME280;7486;51.010;10.366;2022-11-15T14:43:27;97553.41;;;11.63;59.89
14790;BME280;7486;51.010;10.366;2022-11-15T14:45:53;97553.03;;;11.59;60.24
14790;BME280;7486;51.010;10.366;2022-11-15T14:48:20;97549.38;;;11.60;60.22
14790;BME280;7486;51.010;10.366;2022-11-15T14:50:47;97543.59;;;11.63;60.67
14790;BME280;7486;51.010;10.366;2022-11-15T14:53:16;97510.44;;;11.43;60.37
14790;BME280;7486;51.010;10.366;2022-11-15T14:55:43;97542.78;;;11.63;60.43
14790;BME280;7486;51.010;10.366;2022-11-15T14:58:10;97544.06;;;11.60;59.30
14790;BME280;7486;51.010;10.366;2022-11-15T15:00:39;97539.03;;;11.52;59.83
14790;BME280;7486;51.010;10.366;2022-11-15T15:03:07;97532.72;;;11.53;61.03
14790;BME280;7486;51.010;10.366;2022-11-15T15:05:38;97538.41;;;11.57;61.18
14790;BME280;7486;51.010;10.366;2022-11-15T15:08:05;97538.41;;;11.57;60.84
14790;BME280;7486;51.010;10.366;2022-11-15T15:10:41;97532.94;;;11.52;61.06
14790;BME280;7486;51.010;10.366;2022-11-15T15:13:20;97535.81;;;11.50;62.05
14790;BME280;7486;51.010;10.366;2022-11-15T15:15:47;97508.78;;;11.30;61.84
14790;BME280;7486;51.010;10.366;2022-11-15T15:18:15;97484.56;;;11.15;62.43
14790;BME280;7486;51.010;10.366;2022-11-15T15:20:43;97523.09;;;11.41;62.00
14790;BME280;7486;51.010;10.366;2022-11-15T15:23:16;97523.22;;;11.34;61.56
14790;BME280;7486;51.010;10.366;2022-11-15T15:25:43;97533.56;;;11.24;61.97
14790;BME280;7486;51.010;10.366;2022-11-15T15:28:11;97529.38;;;11.16;61.85
14790;BME280;7486;51.010;10.366;2022-11-15T15:30:38;97524.16;;;10.98;61.07
14790;BME280;7486;51.010;10.366;2022-11-15T15:33:05;97514.69;;;10.91;61.18
14790;BME280;7486;51.010;10.366;2022-11-15T15:35:33;97521.81;;;10.90;62.35
14790;BME280;7486;51.010;10.366;2022-11-15T15:38:00;97519.41;;;10.89;62.88
14790;BME280;7486;51.010;10.366;2022-11-15T15:40:30;97518.59;;;10.88;63.06
14790;BME280;7486;51.010;10.366;2022-11-15T15:42:57;97518.69;;;10.82;62.82
14790;BME280;7486;51.010;10.366;2022-11-15T15:45:25;97503.56;;;10.70;63.26
14790;BME280;7486;51.010;10.366;2022-11-15T15:47:52;97516.06;;;10.63;63.00
14790;BME280;7486;51.010;10.366;2022-11-15T15:50:29;97516.59;;;10.54;62.85
14790;BME280;7486;51.010;10.366;2022-11-15T15:52:59;97513.59;;;10.50;63.46
14790;BME280;7486;51.010;10.366;2022-11-15T15:55:27;97503.78;;;10.33;63.87
14790;BME280;7486;51.010;10.366;2022-11-15T15:57:54;97504.75;;;10.20;63.99
14790;BME280;7486;51.010;10.366;2022-11-15T16:00:23;97507.53;;;10.25;64.13
14790;BME280;7486;51.010;10.366;2022-11-15T16:02:50;97514.00;;;10.29;64.10
14790;BME280;7486;51.010;10.366;2022-11-15T16:05:17;97499.97;;;10.29;63.91
14790;BME280;7486;51.010;10.366;2022-11-15T16:07:44;97497.69;;;10.32;63.81
14790;BME280;7486;51.010;10.366;2022-11-15T16:10:24;97497.09;;;10.30;63.56
14790;BME280;7486;51.010;10.366;2022-11-15T16:12:52;97496.75;;;10.27;63.38